Weather observations for the past three days for
COLEMAN
Metric (Imperial)
Date Time (cdt) Wind (kph) Vis. (km) Weather Sky Cond. Temperature (ºC) Relative Humidity Wind Chill (°C) Heat Index (°C) Pressure Precipitation (cm)
Air Dwpt 6 hour altimeter (cm) sea level (mb) 1 hr 3 hr 6 hr
Max. Min.
07 19:35 S 11 16.09 Partly Cloudy SCT080 15.8 11 73% 76.17 0.0
07 19:15 S 9 16.09 Mostly Cloudy BKN090 16.4 11.2 72% 76.17 0.0
07 18:55 S 11 16.09 Mostly Cloudy BKN090 17.1 11 19.7 17.1 68% 76.2 0.0
07 18:35 S 13 16.09 Partly Cloudy SCT100 17.9 10.9 64% 76.23 0.0
07 18:15 S 13 16.09 Fair CLR 18.4 10.3 59% 76.23 0.0
07 17:55 S 15 16.09 Partly Cloudy SCT100 18.1 10.9 63% 76.23 0.0
07 17:35 S 20 16.09 Partly Cloudy SCT110 18.9 9.5 55% 76.28 0.0
07 17:15 SE 15 16.09 Mostly Cloudy BKN100 19.6 8.5 49% 76.28 0.0
07 16:55 SE 15 16.09 Mostly Cloudy BKN110 19.3 8.5 50% 76.23 0.0
07 16:35 E 13 16.09 Partly Cloudy SCT120 19.1 8.1 49% 76.28 0.0
07 16:15 SE 17 16.09 Partly Cloudy SCT120 18.9 7.5 48% 76.33 0.0
07 15:55 SE 17 16.09 Fair CLR 18.8 8.3 51% 76.35 0.0
07 15:35 SE 15 16.09 Partly Cloudy SCT120 17.7 8.4 55% 76.35 0.0
07 14:55 SE 13 16.09 Mostly Cloudy BKN110 17.5 8.5 56% 76.4 0.0
07 14:35 SE 17 16.09 Mostly Cloudy BKN110 17.7 8.3 54% 76.38 0.0
07 14:15 SE 17 16.09 Partly Cloudy SCT110 18.2 8.1 52% 76.38 0.0
07 13:55 SE 15 16.09 Fair CLR 18.6 8.1 51% 76.38 0.0
07 13:35 SE 17 16.09 Fair CLR 18.5 8.2 51% 76.4 0.0
07 13:15 SE 13 16.09 Fair CLR 18.9 8.2 50% 76.43 0.0
07 12:55 SE 15 G 26 16.09 Fair CLR 19.7 7.6 20.8 9.6 46% 76.45 0.0
07 12:35 E 13 G 31 16.09 Fair CLR 19.7 7.9 47% 76.43 0.0
07 12:15 NE 17 16.09 Fair CLR 18.7 8 50% 76.4 0.0
07 11:55 NE 22 16.09 Fair CLR 18.3 8.1 52% 76.45 0.0
07 11:35 E 17 16.09 Fair CLR 17.7 8.2 54% 76.48 0.0
07 11:15 E 19 16.09 Fair CLR 16.5 8.3 59% 76.5 0.0
07 10:55 NE 15 16.09 Fair CLR 15.4 8 62% 76.53 0.0
07 10:35 E 15 16.09 Fair CLR 15.3 8.3 63% 76.53 0.0
07 10:15 E 15 16.09 Fair CLR 14.4 8.1 66% 76.56 0.0
07 09:55 NE 15 16.09 Fair CLR 13.9 8 68% 76.56 0.0
07 09:35 E 15 16.09 Fair CLR 13.5 7.9 69% 76.56 0.0
07 09:15 E 17 16.09 Fair CLR 13.5 7.6 68% 76.56 0.0
07 08:55 E 17 16.09 Fair CLR 12.8 8.1 73% 76.53 0.0
07 08:35 NE 19 16.09 Fair CLR 12.4 8.2 76% 76.56 0.0
07 08:15 NE 15 16.09 Fair CLR 11.2 8.5 84% 76.56 0.0
07 07:55 NE 17 16.09 Fair CLR 10.5 8.5 88% 76.53 0.0
07 07:35 NE 13 16.09 Fair CLR 9.7 7.9 89% 8 76.53 0.0
07 07:10 NE 11 16.09 Fair CLR 9.7 8 89% 8 76.53 0.0
07 06:55 N 15 16.09 Fair CLR 9.8 8 11.8 9.8 89% 8 76.53 0.0
07 06:35 N 13 16.09 Fair CLR 10.1 8.1 88% 76.53 0.0
07 06:15 N 15 16.09 Partly Cloudy SCT019 10.5 8.3 86% 76.5 0.0
07 05:55 N 15 16.09 Overcast OVC019 11.3 8.7 84% 76.5 0.0
07 05:35 NE 15 16.09 Overcast OVC019 11.5 9 85% 76.53 0.0
07 05:15 N 11 16.09 Overcast OVC019 11.6 9 84% 76.53 0.0
07 04:55 N 9 16.09 Overcast OVC017 11.7 9 84% 76.5 0.0
07 04:35 N 11 16.09 Overcast OVC015 11.7 9.2 85% 76.48 0.0
07 04:15 N 11 16.09 Overcast BKN015 OVC025 11.7 9.3 85% 76.45 0.0
07 03:55 N 17 16.09 Overcast SCT017 OVC025 11.5 9.2 86% 76.4 0.0
07 03:35 N 11 16.09 Overcast OVC023 11.8 9.4 85% 76.4 0.0
07 03:15 N 11 16.09 Mostly Cloudy BKN023 11.5 9.3 86% 76.4 0.0
07 02:55 N 11 16.09 Fair CLR 11.1 9 87% 76.38 0.0
07 02:35 N 15 16.09 Fair CLR 11.2 9 86% 76.35 0.0
07 02:15 N 13 16.09 Fair CLR 11.5 9 85% 76.35 0.0
07 01:55 N 13 16.09 Partly Cloudy SCT017 11.5 9 85% 76.35 0.0
07 01:35 N 9 16.09 Fair CLR 11.6 9 84% 76.35 0.0
07 01:15 N 9 16.09 Fair CLR 11.6 8.8 83% 76.35 0.0
07 00:55 N 7 16.09 Fair CLR 11.6 8.7 21 11.6 83% 76.33 0.0
07 00:35 NE 6 16.09 Fair CLR 12.2 8.7 79% 76.3 0.0
06 23:55 NE 9 16.09 Fair CLR 13.2 9 76% 76.28 0.0
06 23:35 NE 15 16.09 Fair CLR 13.5 9 74% 76.28 0.0
06 23:15 NE 9 16.09 Fair CLR 13.7 9 73% 76.28 0.0
06 22:35 NE 13 16.09 Fair CLR 14.1 9 72% 76.23 0.0
06 22:15 NE 15 16.09 Fair CLR 14.2 9.1 72% 76.2 0.0
06 21:55 NE 11 16.09 Fair CLR 14.2 9.3 73% 76.2 0.0
06 21:35 NE 13 16.09 Fair CLR 14.6 9.3 71% 76.17 0.0
06 21:15 E 9 16.09 Fair CLR 15.7 9.2 65% 76.17 0.0
06 20:55 NE 17 16.09 Fair CLR 16.3 9.3 63% 76.17 0.0
06 20:35 N 20 16.09 Fair CLR 17 9.5 62% 76.15 0.0
06 20:15 N 13 16.09 Fair CLR 18 10.1 60% 76.1 0.0
06 19:55 NE 15 16.09 Fair CLR 19.2 10.3 57% 76.1 0.0
06 19:35 NE 7 16.09 Fair CLR 20.3 11.1 56% 76.07 0.0
06 19:15 NE 11 16.09 Fair CLR 20.8 10.7 53% 76.07 0.0
06 18:55 NE 13 16.09 Fair CLR 21.1 10.5 22.2 14.6 51% 76.05 0.0
06 18:35 E 13 16.09 Fair CLR 21.5 10.7 50% 76.05 0.0
06 18:15 E 11 16.09 Fair CLR 22.2 10.8 49% 76.05 0.0
06 17:55 NE 11 16.09 Fair CLR 22.2 10.6 48% 76.02 0.0
06 17:35 NE 6 16.09 Fair CLR 21.6 10.5 49% 76.02 0.0
06 17:15 NE 7 16.09 Fair CLR 21.4 11.1 52% 76.02 0.0
06 16:55 NE 11 16.09 Fair CLR 20.9 10.7 52% 76.02 0.0
06 16:35 N 11 16.09 Fair CLR 20.7 10.7 53% 76.02 0.0
06 16:15 NE 11 16.09 Fair CLR 20.3 10.5 53% 76.05 0.0
06 15:55 NE 13 16.09 Fair CLR 18.9 10.2 57% 76.07 0.0
06 15:35 N 9 16.09 Fair CLR 18.7 9.9 57% 76.1 0.0
06 15:15 NE 15 16.09 Fair CLR 17.4 9.7 61% 76.1 0.0
06 14:55 N 15 16.09 Fair CLR 17.3 9.7 61% 76.12 0.0
06 14:35 N 13 16.09 Partly Cloudy SCT022 17 9.6 62% 76.12 0.0
06 14:15 N 15 16.09 Mostly Cloudy BKN020 17.1 9.7 62% 76.15 0.0
06 13:55 N 15 16.09 Overcast OVC018 16.5 9.7 64% 76.17 0.0
06 13:35 N 15 16.09 Overcast OVC016 15.3 9.3 68% 76.17 0.0
06 13:15 N 13 16.09 Overcast OVC018 14.8 9.2 69% 76.17 0.0
06 12:55 N 17 16.09 Overcast OVC016 14.5 9.3 14.5 10.5 71% 76.17 0.0 0.03
06 12:35 N 22 16.09 Overcast OVC014 13.9 9 73% 76.2 0.0
06 12:15 N 22 G 30 16.09 Overcast OVC014 13.2 9 76% 76.2 0.0
06 11:55 N 19 16.09 Overcast OVC012 12.7 9 78% 76.2 0.0
06 11:35 N 20 16.09 Overcast OVC012 12.5 8.9 79% 76.17 0.0
06 11:15 N 26 16.09 Overcast OVC010 12.3 9.3 82% 76.15 0.0
06 10:55 N 20 G 28 16.09 Overcast OVC010 11.6 9.3 86% 76.15 0.0
06 10:35 N 20 16.09 Overcast OVC008 11.1 9 87% 76.15 0.0
06 10:15 N 24 16.09 Overcast OVC008 11 9.2 89% 76.15 0.0
06 09:55 N 24 G 33 16.09 Overcast OVC006 11.1 9.5 90% 76.07 0.0 0.03
06 09:35 N 24 G 31 16.09 Overcast OVC006 10.9 9.5 91% 76.05 0.0
06 09:15 N 24 16.09 Overcast OVC008 10.9 9.5 91% 76.05 0.0
06 08:55 NE 19 11.27 Overcast BKN008 BKN015 OVC070 10.6 9 90% 76.1 0.0 0.03
06 08:35 N 24 G 30 11.27 Overcast SCT009 BKN014 OVC070 10.5 8.6 88% 76.12 0.0
06 08:15 N 20 16.09 Thunderstorm in Vicinity BKN009 OVC014 10.8 8.6 86% 76.12 0.0
06 07:55 N 19 G 33 16.09 Thunderstorm OVC011 11 8.3 84% 76.1 0.0
06 07:35 N 20 16.09 Thunderstorm in Vicinity OVC011 11.5 8.1 80% 76.07 0.0
06 07:15 N 24 16.09 Overcast OVC013 11.6 8.2 80% 76.02 0.0
06 06:55 N 26 16.09 Overcast OVC013 11.7 8.2 16.5 11.6 79% 76 0.0
06 06:35 NE 19 16.09 Overcast OVC013 11.8 8.1 78% 75.92 0.0
06 06:15 N 20 G 26 16.09 Overcast OVC015 11.8 8 78% 75.92 0.0
06 05:55 N 17 16.09 Overcast OVC015 11.7 8 78% 75.92 0.0
06 05:35 N 24 G 31 16.09 Overcast OVC015 12 8.4 79% 75.9 0.0
06 05:15 N 20 16.09 Overcast OVC015 12.1 8.7 80% 75.9 0.0
06 04:55 N 19 16.09 Mostly Cloudy BKN017 12.1 9 82% 75.87 0.0
06 04:35 N 17 16.09 Partly Cloudy SCT017 12 9.1 83% 75.84 0.0
06 04:15 N 20 16.09 Fair CLR 12.3 9.3 82% 75.84 0.0
06 03:55 N 19 16.09 Fair CLR 12.5 9.5 82% 75.84 0.0
06 03:35 N 19 16.09 Fair CLR 13 9.5 79% 75.79 0.0
06 03:15 N 19 16.09 Fair CLR 13.5 10 80% 75.79 0.0
06 02:55 N 15 16.09 Fair CLR 13.8 10 78% 75.82 0.0
06 02:35 N 13 16.09 Fair CLR 14.3 10.2 77% 75.79 0.0
06 02:15 N 13 16.09 Fair CLR 15 10.5 75% 75.82 0.0
06 01:55 N 15 16.09 Fair CLR 15.5 10.6 73% 75.82 0.0
06 01:35 N 17 16.09 Fair CLR 16 10.7 71% 75.79 0.0
06 01:15 N 13 16.09 Fair CLR 16.2 10.7 70% 75.77 0.0
06 00:55 NE 11 16.09 Fair CLR 16.5 10.9 31.5 16.5 70% 75.74 0.0
06 00:35 NE 13 16.09 Fair CLR 17.5 10.7 65% 75.74 0.0
06 00:15 NE 15 16.09 Fair CLR 17.9 11 64% 75.74 0.0
05 23:55 NE 15 16.09 Fair CLR 18.2 11.1 63% 75.74 0.0
05 23:35 NE 13 16.09 Fair CLR 19.2 11.1 60% 75.74 0.0
05 23:15 NE 24 16.09 Fair CLR 19.6 11.6 60% 75.74 0.0
05 22:55 NE 19 16.09 Fair CLR 20.5 12.2 59% 75.72 0.0
05 22:35 NE 19 16.09 Fair CLR 20.5 12.6 61% 75.69 0.0
05 22:15 NE 11 16.09 Fair CLR 20.7 12.8 61% 75.69 0.0
05 21:55 N 9 16.09 Fair CLR 21.5 12.7 57% 75.67 0.0
05 21:35 N 13 16.09 Fair CLR 22 13 57% 75.67 0.0
05 21:15 N 13 16.09 Fair CLR 22.6 13 55% 75.62 0.0
05 20:55 N 15 16.09 Fair CLR 23.5 13.1 52% 75.59 0.0
05 20:35 N 19 16.09 Fair CLR 24.6 13.6 50% 26 75.57 0.0
05 20:15 N 17 16.09 Fair CLR 25.8 13.5 47% 26 75.51 0.0
05 19:55 NW 13 16.09 Fair CLR 28.5 10.6 33% 28 75.46 0.0
05 19:35 SW 9 16.09 Fair CLR 30 8.2 26% 28 75.41 0.0
05 18:55 SW 9 16.09 Fair CLR 31.5 7.6 34.3 30.5 22% 30 75.41 0.0
05 18:35 SW 7 16.09 Fair CLR 32 7.9 22% 30 75.41 0.0
05 18:15 SW 11 16.09 Fair CLR 33 7.9 21% 31 75.44 0.0
05 17:55 SW 13 G 28 16.09 Fair CLR 33.6 8.2 21% 32 75.44 0.0
05 17:35 SW 9 G 15 16.09 Fair CLR 34.1 8.6 21% 32 75.44 0.0
05 17:15 SW 15 16.09 Fair CLR 33.2 8 21% 31 75.44 0.0
05 16:55 W 13 16.09 Fair CLR 33.3 8.4 21% 31 75.44 0.0
05 16:35 W 17 16.09 Fair CLR 33.4 9.3 23% 32 75.44 0.0
05 16:15 SW 17 G 28 16.09 Fair CLR 32.7 9.6 24% 31 75.46 0.0
05 15:55 W 15 16.09 Fair CLR 32.5 10.3 25% 31 75.46 0.0
05 15:35 W 13 16.09 Fair CLR 32.4 12.1 29% 31 75.46 0.0
05 15:15 SW 15 16.09 Fair CLR 32.3 12.8 30% 31 75.49 0.0
05 14:55 W 13 16.09 Fair CLR 31.9 13.1 32% 31 75.51 0.0
05 14:35 SW 11 16.09 Fair CLR 32.4 13.3 31% 31 75.54 0.0
05 14:15 SW 11 16.09 Fair CLR 31.7 13.4 33% 31 75.54 0.0
05 13:55 W 13 16.09 Fair CLR 31.1 13.8 35% 30 75.54 0.0
05 13:35 W 13 16.09 Fair CLR 31 14.1 36% 30 75.57 0.0
05 13:15 SW 11 G 28 16.09 Fair CLR 30.7 13.3 34% 30 75.59 0.0
05 12:55 W 19 G 28 16.09 Fair CLR 30.3 14.6 30.3 18.3 38% 30 75.62 0.0
05 12:15 W 20 G 26 16.09 Fair CLR 29.3 16.3 45% 29 75.62 0.0
05 11:55 SW 22 G 30 16.09 Fair CLR 28.3 16.9 50% 29 75.62 0.0
05 11:35 SW 19 16.09 Fair CLR 27.9 17.3 53% 29 75.62 0.0
05 11:15 SW 22 G 30 16.09 Fair CLR 26.7 17.4 57% 28 75.62 0.0
05 10:55 SW 20 16.09 Fair CLR 25.6 17.5 61% 27 75.62 0.0
05 10:35 SW 22 G 28 16.09 Fair CLR 25.1 17.6 63% 26 75.59 0.0
05 10:15 SW 15 16.09 Fair CLR 24.5 17.8 66% 26 75.59 0.0
05 09:55 SW 19 G 30 16.09 Fair CLR 23.8 17.5 68% 75.59 0.0
05 09:35 SW 11 G 26 16.09 Fair CLR 23.5 17.7 70% 75.59 0.0
05 09:15 SW 24 16.09 Fair CLR 23 17.5 71% 75.62 0.0
05 08:55 SW 15 G 31 16.09 Fair CLR 22.3 17.5 74% 75.59 0.0
05 08:35 SW 17 16.09 Fair CLR 21.8 17.3 76% 75.57 0.0
05 08:15 SW 13 16.09 Fair CLR 21.3 17.1 77% 75.54 0.0
05 07:35 SW 11 16.09 Fair CLR 19 16.4 85% 75.54 0.0
05 07:15 SW 7 16.09 Fair CLR 18.5 16.1 86% 75.51 0.0
05 06:55 S 6 16.09 Fair CLR 18.3 16 22.2 18.3 87% 75.49 0.0
05 06:35 Calm 16.09 Fair CLR 18.9 16.1 84% 75.49 0.0
05 06:15 Calm 16.09 Fair CLR 19.2 16 82% 75.49 0.0
05 05:55 Calm 16.09 Fair CLR 19.5 16 80% 75.49 0.0
05 05:15 SW 6 16.09 Fair CLR 19.8 16 79% 75.46 0.0
05 04:55 SW 6 16.09 Fair CLR 19.8 16 79% 75.46 0.0
05 04:35 SW 6 16.09 Fair CLR 19.5 16 80% 75.46 0.0
05 04:15 S 9 16.09 Fair CLR 19.5 15.8 79% 75.49 0.0
05 03:55 SW 9 16.09 Fair CLR 19.9 15.9 78% 75.51 0.0
05 03:35 S 13 16.09 Fair CLR 20.1 16 77% 75.51 0.0
05 03:15 SW 9 16.09 Fair CLR 20.3 16 76% 75.54 0.0
05 02:55 SW 9 16.09 Fair CLR 20.6 16 75% 75.54 0.0
05 02:35 SW 7 16.09 Fair CLR 20.6 15.9 75% 75.57 0.0
05 02:15 Calm 16.09 Fair CLR 20.7 16 75% 75.57 0.0
05 01:55 SW 6 16.09 Fair CLR 21.1 16 73% 75.57 0.0
05 01:35 S 11 16.09 Fair CLR 21.5 16 71% 75.57 0.0
05 01:15 S 11 16.09 Fair CLR 22 16.1 69% 75.59 0.0
05 00:55 S 13 16.09 Fair CLR 22.2 16.2 29.6 22.1 69% 75.59 0.0
05 00:35 S 11 16.09 Fair CLR 22.2 16.2 69% 75.62 0.0
05 00:15 S 13 16.09 Fair CLR 22.5 16.3 68% 75.59 0.0
04 23:55 S 20 16.09 Fair CLR 23 16.3 66% 75.59 0.0
04 23:35 S 26 G 35 16.09 Fair CLR 23.3 16.2 64% 75.59 0.0
04 23:15 S 24 16.09 Fair CLR 23.5 16.2 64% 75.59 0.0
04 22:55 S 19 G 28 16.09 Fair CLR 23.8 16.2 63% 75.57 0.0
04 22:35 S 24 16.09 Fair CLR 24.2 16.3 61% 25 75.57 0.0
04 22:15 S 24 16.09 Fair CLR 24.5 16.3 60% 26 75.54 0.0
04 21:55 S 22 16.09 Fair CLR 24.7 16.3 60% 26 75.54 0.0
04 21:35 S 19 16.09 Fair CLR 25 15.5 56% 26 75.54 0.0
04 21:15 S 20 16.09 Fair CLR 25.6 15.1 52% 26 75.51 0.0
04 20:55 S 20 16.09 Fair CLR 26.2 15 50% 27 75.51 0.0
04 20:35 S 20 16.09 Fair CLR 26.7 15.1 49% 27 75.51 0.0
04 20:15 S 22 G 35 16.09 Fair CLR 27.5 15 46% 28 75.46 0.0
04 19:55 S 22 G 35 16.09 Fair CLR 28.1 14.7 44% 28 75.46 0.0
Date Time (cdt) Wind (kph) Vis. (km) Weather Sky Cond. Air Dwpt Max. Min. Relative Humidity Wind Chill (°C) Heat Index (°C) altimeter (cm) sea level (mb) 1 hr 3 hr 6 hr
6 hour
Temperature (ºC) Pressure Precipitation (cm)